sensor_id;sensor_type;location;lat;lon;timestamp;pressure;altitude;pressure_sealevel;temperature;humidity
79586;BME280;69054;50.866;4.636;2024-02-14T00:02:56;100967.69;;;7.87;100.00
79586;BME280;69054;50.866;4.636;2024-02-14T00:12:05;100938.41;;;7.97;100.00
79586;BME280;69054;50.866;4.636;2024-02-14T00:17:53;100956.28;;;8.00;100.00
79586;BME280;69054;50.866;4.636;2024-02-14T00:23:40;100944.38;;;8.01;100.00
79586;BME280;69054;50.866;4.636;2024-02-14T00:29:27;100941.84;;;7.99;100.00
79586;BME280;69054;50.866;4.636;2024-02-14T00:35:14;100934.81;;;8.05;100.00
79586;BME280;69054;50.866;4.636;2024-02-14T00:41:02;100932.25;;;8.12;100.00
79586;BME280;69054;50.866;4.636;2024-02-14T00:46:49;100942.78;;;8.15;100.00
79586;BME280;69054;50.866;4.636;2024-02-14T00:52:36;100948.91;;;8.17;100.00
79586;BME280;69054;50.866;4.636;2024-02-14T00:58:23;100959.06;;;8.23;100.00
79586;BME280;69054;50.866;4.636;2024-02-14T01:04:11;100973.38;;;8.25;100.00
79586;BME280;69054;50.866;4.636;2024-02-14T01:09:58;100969.59;;;8.34;100.00
79586;BME280;69054;50.866;4.636;2024-02-14T01:15:48;100974.34;;;8.41;100.00
79586;BME280;69054;50.866;4.636;2024-02-14T01:21:35;100972.47;;;8.49;100.00
79586;BME280;69054;50.866;4.636;2024-02-14T01:27:22;100979.09;;;8.47;100.00
79586;BME280;69054;50.866;4.636;2024-02-14T01:33:09;100973.66;;;8.47;100.00
79586;BME280;69054;50.866;4.636;2024-02-14T01:38:57;100995.44;;;8.39;100.00
79586;BME280;69054;50.866;4.636;2024-02-14T01:44:58;100986.94;;;8.33;100.00
79586;BME280;69054;50.866;4.636;2024-02-14T01:50:45;100994.78;;;8.37;100.00
79586;BME280;69054;50.866;4.636;2024-02-14T01:56:33;100991.69;;;8.40;100.00
79586;BME280;69054;50.866;4.636;2024-02-14T02:02:20;100991.03;;;8.38;100.00
79586;BME280;69054;50.866;4.636;2024-02-14T02:08:08;100990.88;;;8.31;100.00
79586;BME280;69054;50.866;4.636;2024-02-14T02:13:56;100988.84;;;8.25;100.00
79586;BME280;69054;50.866;4.636;2024-02-14T02:19:43;100981.25;;;8.12;100.00
79586;BME280;69054;50.866;4.636;2024-02-14T02:28:47;100975.19;;;7.93;100.00
79586;BME280;69054;50.866;4.636;2024-02-14T02:34:34;100987.09;;;7.92;100.00
79586;BME280;69054;50.866;4.636;2024-02-14T02:40:24;100995.22;;;8.00;100.00
79586;BME280;69054;50.866;4.636;2024-02-14T02:46:11;100998.28;;;8.06;100.00
79586;BME280;69054;50.866;4.636;2024-02-14T02:51:58;100998.94;;;8.08;100.00
79586;BME280;69054;50.866;4.636;2024-02-14T03:01:08;101009.47;;;8.19;100.00
79586;BME280;69054;50.866;4.636;2024-02-14T03:06:56;101002.09;;;8.28;100.00
79586;BME280;69054;50.866;4.636;2024-02-14T03:12:47;100991.91;;;8.30;100.00
79586;BME280;69054;50.866;4.636;2024-02-14T03:18:34;101001.91;;;8.38;100.00
79586;BME280;69054;50.866;4.636;2024-02-14T03:24:22;101007.00;;;8.41;100.00
79586;BME280;69054;50.866;4.636;2024-02-14T03:33:33;101001.06;;;8.37;100.00
79586;BME280;69054;50.866;4.636;2024-02-14T03:39:20;101006.00;;;8.33;100.00
79586;BME280;69054;50.866;4.636;2024-02-14T03:45:09;101014.19;;;8.33;100.00
79586;BME280;69054;50.866;4.636;2024-02-14T03:50:56;101017.22;;;8.39;100.00
79586;BME280;69054;50.866;4.636;2024-02-14T03:56:43;101016.56;;;8.45;100.00
79586;BME280;69054;50.866;4.636;2024-02-14T04:02:30;101017.22;;;8.47;100.00
79586;BME280;69054;50.866;4.636;2024-02-14T04:08:18;101017.91;;;8.41;100.00
79586;BME280;69054;50.866;4.636;2024-02-14T04:14:06;101019.94;;;8.39;100.00
79586;BME280;69054;50.866;4.636;2024-02-14T04:19:54;101028.31;;;8.45;100.00
79586;BME280;69054;50.866;4.636;2024-02-14T04:25:41;101032.72;;;8.46;100.00
79586;BME280;69054;50.866;4.636;2024-02-14T04:32:02;101039.03;;;8.47;100.00
79586;BME280;69054;50.866;4.636;2024-02-14T04:37:49;101033.03;;;8.51;100.00
79586;BME280;69054;50.866;4.636;2024-02-14T04:43:38;101036.25;;;8.55;100.00
79586;BME280;69054;50.866;4.636;2024-02-14T04:49:25;101033.88;;;8.60;100.00
79586;BME280;69054;50.866;4.636;2024-02-14T04:55:13;101031.28;;;8.67;100.00
79586;BME280;69054;50.866;4.636;2024-02-14T05:01:00;101031.94;;;8.69;100.00
79586;BME280;69054;50.866;4.636;2024-02-14T05:16:54;101038.56;;;8.75;100.00
79586;BME280;69054;50.866;4.636;2024-02-14T05:22:41;101042.50;;;8.72;100.00
79586;BME280;69054;50.866;4.636;2024-02-14T05:28:29;101028.88;;;8.72;100.00
79586;BME280;69054;50.866;4.636;2024-02-14T05:31:13;101037.22;;;8.70;100.00
79586;BME280;69054;50.866;4.636;2024-02-14T05:37:00;101031.09;;;8.68;100.00
79586;BME280;69054;50.866;4.636;2024-02-14T05:42:47;101034.53;;;8.62;100.00
79586;BME280;69054;50.866;4.636;2024-02-14T05:48:34;101032.81;;;8.69;100.00
79586;BME280;69054;50.866;4.636;2024-02-14T05:51:00;101044.34;;;8.72;100.00
79586;BME280;69054;50.866;4.636;2024-02-14T05:56:47;101042.97;;;8.76;100.00
79586;BME280;69054;50.866;4.636;2024-02-14T06:02:35;101041.44;;;8.81;100.00
79586;BME280;69054;50.866;4.636;2024-02-14T06:08:22;101053.47;;;8.87;100.00
79586;BME280;69054;50.866;4.636;2024-02-14T06:14:10;101063.34;;;8.96;100.00
79586;BME280;69054;50.866;4.636;2024-02-14T06:19:57;101054.75;;;9.08;100.00
79586;BME280;69054;50.866;4.636;2024-02-14T06:25:45;101067.28;;;9.17;100.00
79586;BME280;69054;50.866;4.636;2024-02-14T06:31:32;101061.19;;;9.15;100.00
79586;BME280;69054;50.866;4.636;2024-02-14T06:37:19;101054.81;;;9.22;100.00
79586;BME280;69054;50.866;4.636;2024-02-14T06:43:07;101061.75;;;9.33;100.00
79586;BME280;69054;50.866;4.636;2024-02-14T06:48:55;101074.72;;;9.31;100.00
79586;BME280;69054;50.866;4.636;2024-02-14T06:54:43;101075.56;;;9.32;100.00
79586;BME280;69054;50.866;4.636;2024-02-14T07:00:33;101081.13;;;9.38;100.00
79586;BME280;69054;50.866;4.636;2024-02-14T07:03:21;101086.56;;;9.38;100.00
79586;BME280;69054;50.866;4.636;2024-02-14T07:09:08;101083.38;;;9.35;100.00
79586;BME280;69054;50.866;4.636;2024-02-14T07:14:56;101086.94;;;9.35;100.00
79586;BME280;69054;50.866;4.636;2024-02-14T07:20:43;101101.56;;;9.43;100.00
79586;BME280;69054;50.866;4.636;2024-02-14T07:26:31;101109.34;;;9.54;100.00
79586;BME280;69054;50.866;4.636;2024-02-14T07:32:18;101111.34;;;9.60;100.00
79586;BME280;69054;50.866;4.636;2024-02-14T07:38:05;101109.38;;;9.69;100.00
79586;BME280;69054;50.866;4.636;2024-02-14T07:43:52;101106.97;;;9.74;100.00
79586;BME280;69054;50.866;4.636;2024-02-14T07:49:40;101107.25;;;9.79;100.00
79586;BME280;69054;50.866;4.636;2024-02-14T07:55:28;101121.50;;;9.89;100.00
79586;BME280;69054;50.866;4.636;2024-02-14T08:01:36;101112.59;;;9.95;100.00
79586;BME280;69054;50.866;4.636;2024-02-14T08:07:24;101116.09;;;10.04;100.00
79586;BME280;69054;50.866;4.636;2024-02-14T08:16:32;101116.38;;;10.09;100.00
79586;BME280;69054;50.866;4.636;2024-02-14T08:19:11;101122.03;;;10.08;100.00
79586;BME280;69054;50.866;4.636;2024-02-14T08:24:58;101128.59;;;9.99;100.00
79586;BME280;69054;50.866;4.636;2024-02-14T08:34:08;101129.16;;;9.71;100.00
79586;BME280;69054;50.866;4.636;2024-02-14T08:43:52;101127.53;;;9.62;100.00
79586;BME280;69054;50.866;4.636;2024-02-14T08:53:36;101151.53;;;9.66;100.00
79586;BME280;69054;50.866;4.636;2024-02-14T09:03:23;101161.22;;;9.69;100.00
79586;BME280;69054;50.866;4.636;2024-02-14T09:09:10;101146.75;;;9.68;100.00
79586;BME280;69054;50.866;4.636;2024-02-14T09:37:51;101152.09;;;9.85;100.00
79586;BME280;69054;50.866;4.636;2024-02-14T11:00:38;101167.47;;;10.47;100.00
79586;BME280;69054;50.866;4.636;2024-02-14T11:11:33;101178.19;;;10.48;100.00
79586;BME280;69054;50.866;4.636;2024-02-14T11:21:16;101167.94;;;10.65;100.00
79586;BME280;69054;50.866;4.636;2024-02-14T11:37:09;101160.72;;;10.73;100.00
79586;BME280;69054;50.866;4.636;2024-02-14T11:42:55;101161.91;;;10.70;100.00
79586;BME280;69054;50.866;4.636;2024-02-14T11:45:21;101166.53;;;10.70;100.00
79586;BME280;69054;50.866;4.636;2024-02-14T11:54:30;101158.25;;;10.78;100.00
79586;BME280;69054;50.866;4.636;2024-02-14T12:06:42;101150.53;;;10.81;100.00
79586;BME280;69054;50.866;4.636;2024-02-14T13:02:48;101142.84;;;11.22;100.00
79586;BME280;69054;50.866;4.636;2024-02-14T13:12:33;101147.47;;;11.36;100.00
79586;BME280;69054;50.866;4.636;2024-02-14T13:22:19;101144.25;;;11.32;100.00
79586;BME280;69054;50.866;4.636;2024-02-14T13:28:06;101146.13;;;11.32;100.00
79586;BME280;69054;50.866;4.636;2024-02-14T13:33:56;101145.28;;;11.31;100.00
79586;BME280;69054;50.866;4.636;2024-02-14T13:46:45;101142.75;;;11.30;100.00
79586;BME280;69054;50.866;4.636;2024-02-14T13:56:32;101151.41;;;11.33;100.00
79586;BME280;69054;50.866;4.636;2024-02-14T14:18:49;101130.47;;;11.41;100.00
79586;BME280;69054;50.866;4.636;2024-02-14T14:21:18;101134.03;;;11.41;100.00
79586;BME280;69054;50.866;4.636;2024-02-14T14:30:43;101137.50;;;11.50;100.00
79586;BME280;69054;50.866;4.636;2024-02-14T14:40:30;101137.50;;;11.50;100.00
79586;BME280;69054;50.866;4.636;2024-02-14T14:50:16;101139.03;;;11.52;100.00
79586;BME280;69054;50.866;4.636;2024-02-14T15:02:49;101145.47;;;11.66;100.00
79586;BME280;69054;50.866;4.636;2024-02-14T15:10:00;101133.59;;;11.59;100.00
79586;BME280;69054;50.866;4.636;2024-02-14T15:15:53;101144.50;;;11.52;100.00
79586;BME280;69054;50.866;4.636;2024-02-14T15:25:02;101145.34;;;11.53;100.00
79586;BME280;69054;50.866;4.636;2024-02-14T15:30:49;101154.38;;;11.53;100.00
79586;BME280;69054;50.866;4.636;2024-02-14T15:36:55;101146.16;;;11.53;100.00
79586;BME280;69054;50.866;4.636;2024-02-14T15:42:43;101154.84;;;11.57;100.00
79586;BME280;69054;50.866;4.636;2024-02-14T15:48:31;101150.63;;;11.54;100.00
79586;BME280;69054;50.866;4.636;2024-02-14T15:54:18;101149.38;;;11.57;100.00
79586;BME280;69054;50.866;4.636;2024-02-14T16:00:12;101152.50;;;11.54;100.00
79586;BME280;69054;50.866;4.636;2024-02-14T16:09:45;101148.91;;;11.53;100.00
79586;BME280;69054;50.866;4.636;2024-02-14T16:15:34;101151.00;;;11.51;100.00
79586;BME280;69054;50.866;4.636;2024-02-14T16:24:43;101149.03;;;11.45;100.00
79586;BME280;69054;50.866;4.636;2024-02-14T16:34:12;101147.31;;;11.44;100.00
79586;BME280;69054;50.866;4.636;2024-02-14T16:43:58;101150.34;;;11.49;100.00
79586;BME280;69054;50.866;4.636;2024-02-14T16:50:06;101138.09;;;11.45;100.00
79586;BME280;69054;50.866;4.636;2024-02-14T16:55:54;101142.91;;;11.43;100.00
79586;BME280;69054;50.866;4.636;2024-02-14T17:01:41;101146.88;;;11.41;100.00
79586;BME280;69054;50.866;4.636;2024-02-14T17:04:10;101155.66;;;11.36;100.00
79586;BME280;69054;50.866;4.636;2024-02-14T17:09:57;101148.09;;;11.38;100.00
79586;BME280;69054;50.866;4.636;2024-02-14T17:15:45;101154.44;;;11.39;100.00
79586;BME280;69054;50.866;4.636;2024-02-14T17:21:33;101166.88;;;11.41;100.00
79586;BME280;69054;50.866;4.636;2024-02-14T17:27:20;101169.91;;;11.46;100.00
79586;BME280;69054;50.866;4.636;2024-02-14T17:33:07;101176.78;;;11.42;100.00
79586;BME280;69054;50.866;4.636;2024-02-14T17:42:26;101190.72;;;11.47;100.00
79586;BME280;69054;50.866;4.636;2024-02-14T17:48:36;101182.25;;;11.42;100.00
79586;BME280;69054;50.866;4.636;2024-02-14T17:51:02;101186.03;;;11.41;100.00
79586;BME280;69054;50.866;4.636;2024-02-14T17:57:08;101192.38;;;11.42;100.00
79586;BME280;69054;50.866;4.636;2024-02-14T17:59:34;101194.97;;;11.50;100.00
79586;BME280;69054;50.866;4.636;2024-02-14T18:02:00;101204.69;;;11.52;100.00
79586;BME280;69054;50.866;4.636;2024-02-14T18:07:47;101201.78;;;11.54;100.00
79586;BME280;69054;50.866;4.636;2024-02-14T18:13:34;101208.09;;;11.54;100.00
79586;BME280;69054;50.866;4.636;2024-02-14T18:19:21;101201.56;;;11.56;100.00
79586;BME280;69054;50.866;4.636;2024-02-14T18:25:09;101205.09;;;11.49;100.00
79586;BME280;69054;50.866;4.636;2024-02-14T18:30:58;101214.50;;;11.47;100.00
79586;BME280;69054;50.866;4.636;2024-02-14T18:36:45;101216.69;;;11.36;100.00
79586;BME280;69054;50.866;4.636;2024-02-14T18:42:34;101222.66;;;11.40;100.00
79586;BME280;69054;50.866;4.636;2024-02-14T18:48:22;101219.03;;;11.40;100.00
79586;BME280;69054;50.866;4.636;2024-02-14T18:54:10;101217.63;;;11.44;100.00
79586;BME280;69054;50.866;4.636;2024-02-14T18:59:58;101222.47;;;11.42;100.00
79586;BME280;69054;50.866;4.636;2024-02-14T19:05:46;101220.56;;;11.42;100.00
79586;BME280;69054;50.866;4.636;2024-02-14T19:11:33;101221.13;;;11.52;100.00
79586;BME280;69054;50.866;4.636;2024-02-14T19:17:21;101218.56;;;11.51;100.00
79586;BME280;69054;50.866;4.636;2024-02-14T19:23:08;101214.72;;;11.45;100.00
79586;BME280;69054;50.866;4.636;2024-02-14T19:28:55;101218.28;;;11.46;100.00
79586;BME280;69054;50.866;4.636;2024-02-14T19:34:43;101219.41;;;11.51;100.00
79586;BME280;69054;50.866;4.636;2024-02-14T19:40:30;101213.38;;;11.41;100.00
79586;BME280;69054;50.866;4.636;2024-02-14T19:46:19;101220.50;;;11.35;100.00
79586;BME280;69054;50.866;4.636;2024-02-14T19:55:28;101226.59;;;11.38;100.00
79586;BME280;69054;50.866;4.636;2024-02-14T20:04:37;101227.38;;;11.46;100.00
79586;BME280;69054;50.866;4.636;2024-02-14T20:10:24;101233.09;;;11.51;100.00
79586;BME280;69054;50.866;4.636;2024-02-14T20:16:11;101229.91;;;11.48;100.00
79586;BME280;69054;50.866;4.636;2024-02-14T20:21:59;101232.91;;;11.53;100.00
79586;BME280;69054;50.866;4.636;2024-02-14T20:27:46;101234.41;;;11.56;100.00
79586;BME280;69054;50.866;4.636;2024-02-14T20:30:51;101238.28;;;11.61;100.00
79586;BME280;69054;50.866;4.636;2024-02-14T20:36:38;101238.47;;;11.60;100.00
79586;BME280;69054;50.866;4.636;2024-02-14T20:42:26;101239.22;;;11.53;100.00
79586;BME280;69054;50.866;4.636;2024-02-14T20:48:14;101243.41;;;11.49;100.00
79586;BME280;69054;50.866;4.636;2024-02-14T20:54:04;101239.22;;;11.53;100.00
79586;BME280;69054;50.866;4.636;2024-02-14T20:59:51;101242.91;;;11.61;100.00
79586;BME280;69054;50.866;4.636;2024-02-14T21:05:39;101250.34;;;11.67;100.00
79586;BME280;69054;50.866;4.636;2024-02-14T21:11:26;101253.97;;;11.52;100.00
79586;BME280;69054;50.866;4.636;2024-02-14T21:17:16;101252.56;;;11.42;100.00
79586;BME280;69054;50.866;4.636;2024-02-14T21:23:08;101250.78;;;11.34;100.00
79586;BME280;69054;50.866;4.636;2024-02-14T21:28:56;101253.50;;;11.34;100.00
79586;BME280;69054;50.866;4.636;2024-02-14T21:31:48;101260.66;;;11.35;100.00
79586;BME280;69054;50.866;4.636;2024-02-14T21:37:35;101260.47;;;11.36;100.00
79586;BME280;69054;50.866;4.636;2024-02-14T21:43:22;101261.16;;;11.39;100.00
79586;BME280;69054;50.866;4.636;2024-02-14T21:49:10;101256.50;;;11.39;100.00
79586;BME280;69054;50.866;4.636;2024-02-14T21:55:01;101257.66;;;11.45;100.00
79586;BME280;69054;50.866;4.636;2024-02-14T22:00:48;101248.75;;;11.43;100.00
79586;BME280;69054;50.866;4.636;2024-02-14T22:06:35;101254.16;;;11.36;100.00
79586;BME280;69054;50.866;4.636;2024-02-14T22:12:22;101254.63;;;11.40;100.00
79586;BME280;69054;50.866;4.636;2024-02-14T22:15:23;101248.75;;;11.43;100.00
79586;BME280;69054;50.866;4.636;2024-02-14T22:21:10;101234.63;;;11.39;100.00
79586;BME280;69054;50.866;4.636;2024-02-14T22:26:58;101234.81;;;11.38;100.00
79586;BME280;69054;50.866;4.636;2024-02-14T22:32:45;101232.47;;;11.34;100.00
79586;BME280;69054;50.866;4.636;2024-02-14T22:38:32;101229.72;;;11.34;100.00
79586;BME280;69054;50.866;4.636;2024-02-14T22:44:20;101228.88;;;11.34;100.00
79586;BME280;69054;50.866;4.636;2024-02-14T22:50:08;101214.16;;;11.35;100.00
79586;BME280;69054;50.866;4.636;2024-02-14T22:55:55;101205.09;;;11.34;100.00
79586;BME280;69054;50.866;4.636;2024-02-14T23:01:42;101217.63;;;11.44;100.00
79586;BME280;69054;50.866;4.636;2024-02-14T23:07:30;101210.66;;;11.41;100.00
79586;BME280;69054;50.866;4.636;2024-02-14T23:13:17;101223.38;;;11.49;100.00
79586;BME280;69054;50.866;4.636;2024-02-14T23:19:04;101217.25;;;11.47;100.00
79586;BME280;69054;50.866;4.636;2024-02-14T23:24:51;101221.88;;;11.46;100.00
79586;BME280;69054;50.866;4.636;2024-02-14T23:30:38;101219.41;;;11.51;100.00
79586;BME280;69054;50.866;4.636;2024-02-14T23:36:26;101215.44;;;11.54;100.00
79586;BME280;69054;50.866;4.636;2024-02-14T23:45:35;101209.41;;;11.59;100.00
79586;BME280;69054;50.866;4.636;2024-02-14T23:51:22;101214.38;;;11.70;100.00
79586;BME280;69054;50.866;4.636;2024-02-14T23:57:09;101217.59;;;11.74;100.00
